Port Alsworth, AK

4:20 PM AKST on February 10, 2016 (GMT -0900)
Port Alsworth | | Change Station
CLOSE
Current Station
Airport
Location: Port Alsworth,
Elevation: 279 ft
Nearby Weather Stations

Elev 279 ft 60.20 °N, 154.32 °W | Updated 1 hour ago

Scattered Clouds
Scattered Clouds
45 °F
Feels Like 40 °F
N
9
Wind Variable Wind from ENE

Today
High -- | Low -- °F
--% Chance of Precip.
Yesterday
High -- | Low -- °F
Precip. -- in
Pressure 29.39 in
Visibility 40.0 miles
Clouds Scattered Clouds 20000 ft
Windchill 40 °F
Dew Point 37 °F
Humidity 76%
Rainfall 0.00 in
Snow Depth Not available.
9:09 AM 5:53 PM
Waxing Crescent, 8% visible
METAR PALJ 102350Z 06008KT 40SM SCT200 07/03 A2939 RMK EST PASS OPENED NOSPECI
Pressure 29.39 in
Visibility 40.0 miles
Clouds Scattered Clouds 20000 ft
Windchill 40 °F
Dew Point 37 °F
Humidity 76%
Rainfall 0.00 in
Snow Depth Not available.
9:09 AM 5:53 PM
Waxing Crescent, 8% visible
METAR PALJ 102350Z 06008KT 40SM SCT200 07/03 A2939 RMK EST PASS OPENED NOSPECI

10-Day Weather Forecast

Almanac

Astronomy

Feb. 10, 2016 Rise Set
Actual Time
Civil Twilight
Nautical Twilight
Astronomical Twilight
Moon
Length of Visible Light
Length of Day
Tomorrow will be .
, % of the Moon is Illuminated

Today's Extremes

State Highs State Lows

Community

WunderPhotos

Upload Photos

1,891,961 photos uploaded!

WunderBlog® & News

Nearby

Air Quality

  Air Quality AQ Index Pollutant
Not available.

Snow Depth

Station Depth Elevation

Earthquake Activity

City Distance Mag. Time & Date
Minimum magnitude displayed is 2.5.

Coastal Water Temperatures

Place Temperature

Stations

Nearby Weather Stations

Station Location Temp. Windchill Dew Point Humidity Wind Precip. Elev Updated Type
                   

Watches & Warnings

There are currently no watches in effect.